Slupsk, Poland

11:39 AM CEST on August 30, 2016 (GMT +0200)
Podole Wielkie | | Change Station

Elev 226 ft 54.58 °N, 17.50 °E | Updated 14 minutes ago

Mostly Cloudy
Mostly Cloudy
63.1 °F
Feels Like 63.1 °F
N
7.0
Wind Variable Wind from West
Gusts 17.0 mph

Today
High -- | Low -- °F
--% Chance of Precip.
Yesterday
High -- | Low -- °F
Precip. -- in
Pressure 30.12 in
Visibility 6.2 miles
Clouds Scattered Clouds 2600 ft
Mostly Cloudy 3100 ft
Dew Point 56 °F
Humidity 78%
Rainfall 0.00 in
Snow Depth Not available.
5:56 AM 7:47 PM
Waning Crescent, 4% visible
METAR EPGD 300930Z 29015KT 9999 SCT026 BKN031 18/11 Q1020
Pressure 30.12 in
Visibility 6.2 miles
Clouds Scattered Clouds 2600 ft
Mostly Cloudy 3100 ft
Dew Point 56 °F
Humidity 78%
Rainfall 0.00 in
Snow Depth Not available.
5:56 AM 7:47 PM
Waning Crescent, 4% visible
METAR EPGD 300930Z 29015KT 9999 SCT026 BKN031 18/11 Q1020

10-Day Weather Forecast

×

Almanac

Astronomy

Aug. 30, 2016 Rise Set
Actual Time
Civil Twilight
Nautical Twilight
Astronomical Twilight
Moon
Length of Visible Light
Length of Day
Tomorrow will be .
, % of the Moon is Illuminated

Today's Extremes

Country Highs Country Lows

Community

WunderPhotos

Upload Photos

1,935,795 photos uploaded!

WunderBlog® & News

Nearby

Air Quality

  Air Quality AQ Index Pollutant
Not available.

Snow Depth

Station Depth Elevation

Earthquake Activity

City Distance Mag. Time & Date
Minimum magnitude displayed is 2.5.

Coastal Water Temperatures

Place Temperature

Stations

Nearby Weather Stations

Station Location Temp. Windchill Dew Point Humidity Wind Precip. Elev Updated Type